Time;durP1;ratioP1;P1;durP2;ratioP2;P2;SDS_P1;SDS_P2;PMS_P1;PMS_P2;Temp;Humidity;BMP_temperature;BMP_pressure;BME280_temperature;BME280_humidity;BME280_pressure;Samples;Min_cycle;Max_cycle;Signal;HPM_P1;HPM_P2
2022/06/25 00:01:24;;;;;;;15.05;13.43;;;18.20;99.90;;;;;;4956871;28;20058;-78
2022/06/25 00:03:50;;;;;;;14.35;12.73;;;18.30;99.90;;;;;;4956719;28;20041;-78
2022/06/25 00:06:17;;;;;;;15.93;12.88;;;18.40;99.90;;;;;;4956510;28;20507;-77
2022/06/25 00:08:47;;;;;;;16.92;13.30;;;18.30;99.90;;;;;;4956065;28;20082;-77
2022/06/25 00:14:03;;;;;;;14.73;13.20;;;18.20;99.90;;;;;;4956619;28;20545;-77
2022/06/25 00:16:29;;;;;;;13.73;12.13;;;18.20;99.90;;;;;;4940624;28;20053;-77
2022/06/25 00:18:55;;;;;;;15.10;13.20;;;18.20;99.90;;;;;;4940664;28;20117;-77
2022/06/25 00:21:20;;;;;;;15.82;14.18;;;18.30;99.90;;;;;;4956859;28;20129;-77
2022/06/25 00:23:46;;;;;;;16.00;14.40;;;18.30;99.90;;;;;;4956824;28;20050;-78
2022/06/25 00:26:11;;;;;;;15.07;13.48;;;18.10;99.90;;;;;;4940130;28;20050;-78
2022/06/25 00:28:37;;;;;;;15.10;13.43;;;18.20;99.90;;;;;;4956731;28;20125;-78
2022/06/25 00:31:02;;;;;;;15.48;13.88;;;18.30;99.90;;;;;;4956507;28;20485;-78
2022/06/25 00:33:28;;;;;;;15.07;13.50;;;18.20;99.90;;;;;;4956693;28;20034;-78
2022/06/25 00:35:53;;;;;;;17.58;13.43;;;18.20;99.90;;;;;;4956181;28;20093;-77
2022/06/25 00:38:19;;;;;;;15.50;14.00;;;18.20;99.90;;;;;;4956701;28;20141;-77
2022/06/25 00:40:45;;;;;;;15.38;13.88;;;18.30;99.90;;;;;;4940327;28;20093;-78
2022/06/25 00:43:11;;;;;;;15.13;13.68;;;18.10;99.90;;;;;;4956133;28;20090;-78
2022/06/25 00:45:36;;;;;;;14.70;12.77;;;18.20;99.90;;;;;;4955764;28;20098;-77
2022/06/25 00:48:02;;;;;;;16.58;13.50;;;18.20;99.90;;;;;;4956108;28;20042;-78
2022/06/25 00:50:28;;;;;;;14.43;12.93;;;18.20;99.90;;;;;;4955953;28;20102;-77
2022/06/25 00:52:57;;;;;;;15.32;13.73;;;18.10;99.90;;;;;;4940134;28;20409;-77
2022/06/25 00:55:27;;;;;;;16.77;13.77;;;18.20;99.90;;;;;;4955902;28;20097;-78
2022/06/25 00:57:57;;;;;;;14.57;13.07;;;18.00;99.90;;;;;;4955911;28;20101;-77
2022/06/25 01:00:22;;;;;;;16.13;14.45;;;18.20;99.90;;;;;;4955759;28;20046;-78
2022/06/25 01:02:48;;;;;;;16.15;13.93;;;18.10;99.90;;;;;;4956223;28;20134;-77
2022/06/25 01:05:15;;;;;;;15.43;13.88;;;18.00;99.90;;;;;;4939740;28;20489;-78
2022/06/25 01:07:44;;;;;;;16.17;14.48;;;18.00;99.90;;;;;;4956134;28;20394;-77
2022/06/25 01:10:12;;;;;;;14.60;12.75;;;18.00;99.90;;;;;;4955833;28;20396;-77
2022/06/25 01:12:37;;;;;;;18.52;14.02;;;17.90;99.90;;;;;;4956015;28;20156;-77
2022/06/25 01:15:17;;;;;;;16.75;14.20;;;17.90;99.90;;;;;;4955388;28;20500;-78
2022/06/25 01:17:47;;;;;;;15.55;13.90;;;17.90;99.90;;;;;;4939812;28;20049;-77
2022/06/25 01:20:15;;;;;;;17.17;14.85;;;17.90;99.90;;;;;;4939421;28;20047;-78
2022/06/25 01:22:40;;;;;;;15.43;13.50;;;17.80;99.90;;;;;;4955595;28;20042;-78
2022/06/25 01:25:07;;;;;;;14.73;13.23;;;17.80;99.90;;;;;;4955211;28;20131;-78
2022/06/25 01:27:33;;;;;;;15.80;13.48;;;17.80;99.90;;;;;;4939988;28;20437;-78
2022/06/25 01:29:59;;;;;;;14.55;11.90;;;17.60;99.90;;;;;;4939834;28;20042;-78
2022/06/25 01:32:25;;;;;;;16.23;14.20;;;17.90;99.90;;;;;;4955580;28;20489;-78
2022/06/25 01:34:51;;;;;;;16.02;13.27;;;17.70;99.90;;;;;;4955561;28;20035;-78
2022/06/25 01:37:16;;;;;;;16.45;13.35;;;17.70;99.90;;;;;;4955674;28;20496;-78
2022/06/25 01:39:42;;;;;;;13.15;11.75;;;17.60;99.90;;;;;;4955372;28;20069;-77
2022/06/25 01:42:58;;;;;;;14.02;12.63;;;17.60;99.90;;;;;;4955674;28;20405;-78
2022/06/25 01:44:53;;;;;;;14.02;10.98;;;17.70;99.90;;;;;;4954953;28;20047;-78
2022/06/25 01:47:18;;;;;;;13.98;12.63;;;17.70;99.90;;;;;;4955405;28;20420;-78
2022/06/25 01:49:44;;;;;;;12.70;11.35;;;17.60;99.90;;;;;;4955366;28;20043;-78
2022/06/25 01:52:13;;;;;;;13.40;11.13;;;17.70;99.90;;;;;;4955348;28;20045;-77
2022/06/25 01:54:38;;;;;;;13.20;11.38;;;17.50;99.90;;;;;;4955285;28;20050;-78
2022/06/25 01:57:04;;;;;;;12.75;11.45;;;17.70;99.90;;;;;;4955074;28;20046;-77
2022/06/25 01:59:29;;;;;;;12.18;10.95;;;17.60;99.90;;;;;;4955225;28;20039;-77
2022/06/25 02:01:55;;;;;;;12.43;11.00;;;17.60;99.90;;;;;;4955481;28;20134;-77
2022/06/25 02:04:20;;;;;;;11.43;10.32;;;17.60;99.90;;;;;;4939166;28;20121;-77
2022/06/25 02:06:46;;;;;;;11.60;10.50;;;17.60;99.90;;;;;;4954902;28;20035;-78
2022/06/25 02:09:12;;;;;;;11.77;10.57;;;17.60;99.90;;;;;;4955280;28;20118;-77
2022/06/25 02:11:37;;;;;;;12.00;10.90;;;17.50;99.90;;;;;;4955559;28;20078;-77
2022/06/25 02:14:03;;;;;;;11.38;10.27;;;17.70;99.90;;;;;;4955310;28;20038;-77
2022/06/25 02:16:28;;;;;;;11.13;10.02;;;17.70;99.90;;;;;;4955109;28;20424;-78
2022/06/25 02:18:54;;;;;;;11.23;10.02;;;17.50;99.90;;;;;;4954984;28;20066;-77
2022/06/25 02:21:20;;;;;;;11.70;10.50;;;17.50;99.90;;;;;;4955055;28;20035;-77
2022/06/25 02:23:45;;;;;;;13.00;11.07;;;17.50;99.90;;;;;;4955018;28;20050;-77
2022/06/25 02:26:11;;;;;;;11.73;10.07;;;17.40;99.90;;;;;;4954718;28;20508;-78
2022/06/25 02:28:36;;;;;;;14.30;9.38;;;17.40;99.90;;;;;;4955034;28;20133;-77
2022/06/25 02:31:02;;;;;;;14.57;10.45;;;17.30;99.90;;;;;;4955055;28;20046;-77
2022/06/25 02:33:27;;;;;;;11.68;10.48;;;17.30;99.90;;;;;;4958380;28;20523;-77
2022/06/25 02:35:53;;;;;;;13.80;10.23;;;17.20;99.90;;;;;;4958151;28;20047;-77
2022/06/25 02:38:18;;;;;;;14.57;11.35;;;17.20;99.90;;;;;;4958700;28;20053;-77
2022/06/25 02:40:46;;;;;;;11.70;10.50;;;17.10;99.90;;;;;;4942344;28;20142;-77
2022/06/25 02:43:11;;;;;;;12.48;11.25;;;17.20;99.90;;;;;;4942340;28;20038;-78
2022/06/25 02:45:37;;;;;;;12.27;11.00;;;17.20;99.90;;;;;;4957936;28;20483;-78
2022/06/25 02:48:03;;;;;;;14.02;11.88;;;17.10;99.90;;;;;;4958224;28;20035;-77
2022/06/25 02:50:29;;;;;;;12.38;11.10;;;17.20;99.90;;;;;;4958098;28;20441;-77
2022/06/25 02:52:54;;;;;;;14.57;12.10;;;17.30;99.90;;;;;;4958176;28;20412;-77
2022/06/25 02:58:54;;;;;;;11.80;10.50;;;17.10;99.90;;;;;;4957834;28;20039;-78
2022/06/25 03:00:50;;;;;;;13.50;11.95;;;17.20;99.90;;;;;;4958037;28;20456;-78
2022/06/25 03:03:16;;;;;;;14.27;11.57;;;17.10;99.90;;;;;;4941945;28;20049;-77
2022/06/25 03:05:42;;;;;;;12.48;11.13;;;17.10;99.90;;;;;;4941672;28;20042;-78
2022/06/25 03:08:07;;;;;;;11.45;10.23;;;17.10;99.90;;;;;;4958238;28;20038;-78
2022/06/25 03:10:33;;;;;;;14.52;11.40;;;17.00;99.90;;;;;;5006833;23;20076;-70
2022/06/25 03:12:58;;;;;;;13.63;11.40;;;17.00;99.90;;;;;;5032676;28;20041;-70
2022/06/25 03:15:24;;;;;;;14.00;11.65;;;17.10;99.90;;;;;;5032131;28;20076;-70
2022/06/25 03:17:49;;;;;;;11.73;10.63;;;17.10;99.90;;;;;;5033803;28;20042;-70
2022/06/25 03:20:15;;;;;;;13.85;10.57;;;17.10;99.90;;;;;;5033832;28;20041;-70
2022/06/25 03:22:40;;;;;;;13.48;12.02;;;17.10;99.90;;;;;;5032304;28;20461;-70
2022/06/25 03:25:06;;;;;;;14.27;11.35;;;17.00;99.90;;;;;;5033227;28;20076;-70
2022/06/25 03:27:32;;;;;;;13.23;11.45;;;17.00;99.90;;;;;;5033672;28;20388;-70
2022/06/25 03:29:58;;;;;;;12.25;10.95;;;17.00;99.90;;;;;;5033493;28;20041;-70
2022/06/25 03:32:23;;;;;;;12.18;10.95;;;17.10;99.90;;;;;;5033362;28;20044;-70
2022/06/25 03:34:49;;;;;;;13.02;11.70;;;17.10;99.90;;;;;;5033374;28;20096;-70
2022/06/25 03:37:14;;;;;;;14.98;13.07;;;17.00;99.90;;;;;;5032256;28;20044;-70
2022/06/25 03:39:40;;;;;;;16.05;12.93;;;17.10;99.90;;;;;;5033388;28;20116;-70
2022/06/25 03:42:06;;;;;;;13.48;12.23;;;17.10;99.90;;;;;;5033291;28;20418;-71
2022/06/25 03:44:31;;;;;;;14.68;13.07;;;16.90;99.90;;;;;;5033134;28;20044;-70
2022/06/25 03:46:57;;;;;;;16.40;13.48;;;17.00;99.90;;;;;;5032801;28;20164;-70
2022/06/25 03:49:22;;;;;;;16.25;13.88;;;17.00;99.90;;;;;;5033216;28;20083;-70
2022/06/25 03:51:49;;;;;;;18.80;13.93;;;17.00;99.90;;;;;;5033290;28;20045;-70
2022/06/25 03:54:14;;;;;;;16.45;14.43;;;16.90;99.90;;;;;;5031855;28;20047;-70
2022/06/25 03:56:40;;;;;;;17.58;14.20;;;17.00;99.90;;;;;;5032812;28;20046;-70
2022/06/25 03:59:06;;;;;;;16.27;14.57;;;17.00;99.90;;;;;;5032819;28;20041;-70
2022/06/25 04:01:31;;;;;;;16.70;14.15;;;17.00;99.90;;;;;;5032890;28;20029;-70
2022/06/25 04:03:57;;;;;;;17.67;14.70;;;17.10;99.90;;;;;;5032960;28;20040;-70
2022/06/25 04:06:22;;;;;;;16.33;14.73;;;17.00;99.90;;;;;;5032742;28;20033;-70
2022/06/25 04:08:48;;;;;;;17.58;14.90;;;17.10;99.90;;;;;;5032909;28;20457;-70
2022/06/25 04:11:14;;;;;;;16.13;14.43;;;17.10;99.90;;;;;;5032552;28;20037;-70
2022/06/25 04:13:39;;;;;;;16.65;14.00;;;17.10;99.90;;;;;;5032685;28;20045;-71
2022/06/25 04:16:05;;;;;;;15.82;14.23;;;17.10;99.90;;;;;;5032475;28;20041;-71
2022/06/25 04:18:31;;;;;;;16.02;14.35;;;17.20;99.90;;;;;;5032814;28;20116;-70
2022/06/25 04:20:58;;;;;;;14.32;12.57;;;17.20;99.90;;;;;;5031409;28;20049;-70
2022/06/25 04:23:24;;;;;;;16.60;14.80;;;17.20;99.90;;;;;;5031206;28;20517;-71
2022/06/25 04:25:49;;;;;;;15.32;13.23;;;17.30;99.90;;;;;;5032085;28;20042;-70
2022/06/25 04:30:59;;;;;;;13.90;12.50;;;17.30;99.90;;;;;;5030949;28;20041;-70
2022/06/25 04:33:25;;;;;;;16.30;13.32;;;17.30;99.90;;;;;;5032451;28;20116;-71
2022/06/25 04:35:50;;;;;;;16.08;14.38;;;17.40;99.90;;;;;;5030985;28;20521;-70
2022/06/25 04:38:16;;;;;;;20.52;13.75;;;17.50;99.90;;;;;;5014571;28;20529;-70
2022/06/25 04:40:42;;;;;;;14.68;13.18;;;17.50;99.90;;;;;;5032211;28;20473;-71
2022/06/25 04:43:07;;;;;;;14.38;12.98;;;17.70;99.90;;;;;;5032578;28;20049;-71
2022/06/25 04:45:33;;;;;;;14.38;12.82;;;17.80;99.90;;;;;;5031933;28;20128;-70
2022/06/25 04:48:03;;;;;;;14.05;12.63;;;17.90;99.90;;;;;;5032155;28;20442;-71
2022/06/25 04:50:29;;;;;;;13.40;12.00;;;18.00;99.90;;;;;;5032036;28;20084;-71
2022/06/25 04:52:55;;;;;;;13.98;12.55;;;18.20;99.90;;;;;;5032068;28;20033;-70
2022/06/25 04:55:21;;;;;;;14.07;12.02;;;18.30;99.90;;;;;;5030054;28;20044;-71
2022/06/25 04:57:46;;;;;;;12.38;11.18;;;18.60;99.90;;;;;;5031962;28;20128;-70
2022/06/25 05:00:12;;;;;;;12.40;10.70;;;18.90;99.90;;;;;;5031768;28;20414;-70
2022/06/25 05:02:38;;;;;;;14.48;11.30;;;19.10;99.90;;;;;;5030501;28;20041;-71
2022/06/25 05:05:05;;;;;;;14.30;10.93;;;19.40;99.90;;;;;;5030167;28;20038;-71
2022/06/25 05:07:31;;;;;;;11.55;10.07;;;19.60;99.90;;;;;;5031710;28;20083;-71
2022/06/25 05:09:56;;;;;;;10.48;9.35;;;19.90;99.90;;;;;;5031586;28;20063;-71
2022/06/25 05:15:07;;;;;;;9.65;8.65;;;20.50;99.90;;;;;;5031551;28;20049;-71
2022/06/25 05:17:33;;;;;;;10.20;9.13;;;20.70;99.90;;;;;;5031773;28;20512;-71
2022/06/25 05:19:59;;;;;;;12.00;8.80;;;21.10;99.90;;;;;;5031683;28;20049;-71
2022/06/25 05:22:25;;;;;;;8.95;7.72;;;21.30;99.90;;;;;;5031524;28;20391;-71
2022/06/25 05:24:50;;;;;;;9.93;8.98;;;21.50;99.90;;;;;;5031272;28;20414;-71
2022/06/25 05:27:16;;;;;;;8.45;7.65;;;21.70;99.90;;;;;;5031756;28;20091;-71
2022/06/25 05:29:42;;;;;;;10.20;7.90;;;21.90;99.90;;;;;;5030392;28;20446;-71
2022/06/25 05:32:08;;;;;;;8.02;7.30;;;22.10;99.90;;;;;;5031604;28;20088;-71
2022/06/25 05:34:33;;;;;;;9.50;7.10;;;22.30;99.90;;;;;;5031538;28;20047;-71
2022/06/25 05:36:59;;;;;;;9.57;7.47;;;22.50;99.90;;;;;;5031223;28;20116;-71
2022/06/25 05:39:24;;;;;;;8.55;6.30;;;22.60;99.90;;;;;;5031499;28;20045;-71
2022/06/25 05:41:50;;;;;;;8.38;6.53;;;22.80;99.90;;;;;;5031367;28;20046;-71
2022/06/25 05:44:15;;;;;;;13.10;6.90;;;22.90;99.90;;;;;;5029981;28;20308;-71
2022/06/25 05:46:41;;;;;;;7.97;6.22;;;23.00;99.90;;;;;;5031049;28;20084;-71
2022/06/25 05:49:06;;;;;;;9.75;6.40;;;23.20;99.90;;;;;;5030034;28;20045;-71
2022/06/25 05:51:32;;;;;;;8.23;6.75;;;23.30;99.90;;;;;;5030380;28;20092;-71
2022/06/25 05:53:57;;;;;;;7.85;6.10;;;23.40;99.90;;;;;;5029848;28;20037;-71
2022/06/25 05:56:23;;;;;;;7.90;6.45;;;23.50;99.90;;;;;;5031208;28;20144;-71
2022/06/25 05:58:49;;;;;;;6.55;5.80;;;23.50;99.90;;;;;;5031429;28;20418;-71
2022/06/25 06:01:14;;;;;;;8.05;6.22;;;23.70;99.90;;;;;;5031201;28;20396;-71
2022/06/25 06:03:40;;;;;;;10.43;6.05;;;23.90;99.90;;;;;;5030213;28;20120;-71
2022/06/25 06:06:05;;;;;;;6.20;5.60;;;23.90;99.90;;;;;;5030922;28;20564;-71
2022/06/25 06:08:31;;;;;;;7.75;6.25;;;24.20;99.90;;;;;;5033440;28;20555;-72
2022/06/25 06:10:56;;;;;;;8.75;6.65;;;24.40;99.90;;;;;;5035028;28;20038;-71
2022/06/25 06:13:22;;;;;;;6.25;5.63;;;24.30;99.90;;;;;;5035001;28;20037;-71
2022/06/25 06:15:47;;;;;;;6.20;5.55;;;24.40;99.90;;;;;;5034742;28;20121;-71
2022/06/25 06:18:13;;;;;;;7.75;5.72;;;24.60;99.90;;;;;;5034875;28;20077;-71
2022/06/25 06:20:39;;;;;;;6.18;5.18;;;24.70;99.90;;;;;;5034792;28;20406;-71
2022/06/25 06:23:05;;;;;;;8.07;5.05;;;24.80;99.90;;;;;;5034767;28;20142;-71
2022/06/25 06:25:30;;;;;;;7.35;4.80;;;24.90;99.90;;;;;;5034395;28;20041;-71
2022/06/25 06:27:56;;;;;;;6.15;5.45;;;24.90;99.90;;;;;;5033336;28;20107;-71
2022/06/25 06:30:22;;;;;;;8.43;5.32;;;25.00;99.90;;;;;;5034583;28;20049;-71
2022/06/25 06:32:48;;;;;;;6.28;5.05;;;25.10;99.90;;;;;;5034632;28;20048;-71
2022/06/25 06:35:13;;;;;;;10.73;5.60;;;25.20;99.90;;;;;;5034256;28;20041;-71
2022/06/25 06:37:39;;;;;;;7.78;4.72;;;25.20;99.90;;;;;;5033449;28;20483;-71
2022/06/25 06:40:06;;;;;;;6.35;4.90;;;25.40;99.90;;;;;;5034359;28;20041;-71
2022/06/25 06:42:31;;;;;;;5.82;4.93;;;25.50;99.90;;;;;;5033108;28;20053;-71
2022/06/25 06:44:57;;;;;;;8.95;4.93;;;25.50;99.90;;;;;;5016360;28;20236;-71
2022/06/25 06:47:23;;;;;;;6.10;4.82;;;25.70;99.90;;;;;;5034322;28;20042;-71
2022/06/25 06:49:48;;;;;;;7.65;4.95;;;25.60;99.90;;;;;;5034317;28;20610;-71
2022/06/25 06:52:14;;;;;;;6.03;4.75;;;25.50;99.90;;;;;;5034201;28;20183;-72
2022/06/25 06:54:40;;;;;;;5.60;4.95;;;25.50;99.90;;;;;;5034225;28;20033;-71
2022/06/25 06:57:06;;;;;;;6.32;4.90;;;25.40;99.80;;;;;;5033937;28;20041;-71
2022/06/25 06:59:32;;;;;;;6.32;4.35;;;25.40;99.60;;;;;;5034250;28;20494;-71
2022/06/25 07:01:58;;;;;;;5.45;4.35;;;25.70;99.10;;;;;;5034330;28;20523;-71
2022/06/25 07:04:23;;;;;;;6.18;4.32;;;26.10;98.40;;;;;;5034028;28;20034;-71
2022/06/25 07:06:49;;;;;;;5.93;3.85;;;26.30;97.60;;;;;;5023378;28;20454;-71
2022/06/25 07:09:14;;;;;;;6.97;4.28;;;26.30;96.80;;;;;;5021422;28;20133;-71
2022/06/25 07:11:40;;;;;;;4.82;3.90;;;26.40;96.00;;;;;;5034030;28;20414;-72
2022/06/25 07:14:06;;;;;;;6.97;3.95;;;26.40;96.60;;;;;;5032734;28;20037;-71
2022/06/25 07:16:33;;;;;;;6.35;3.28;;;26.50;97.60;;;;;;5032519;28;20491;-71
2022/06/25 07:19:00;;;;;;;7.38;3.22;;;26.60;95.80;;;;;;5032730;28;20533;-71
2022/06/25 07:21:26;;;;;;;10.32;4.35;;;26.90;95.20;;;;;;5033606;28;20482;-71
2022/06/25 07:23:53;;;;;;;4.45;3.58;;;27.10;95.00;;;;;;5033996;28;20037;-71
2022/06/25 07:26:20;;;;;;;4.85;3.53;;;27.00;94.00;;;;;;5033470;28;20076;-71
2022/06/25 07:28:46;;;;;;;6.95;3.38;;;27.00;93.20;;;;;;5033774;28;20037;-72
2022/06/25 07:31:11;;;;;;;6.32;3.10;;;27.30;92.90;;;;;;5032205;28;20037;-71
2022/06/25 07:33:38;;;;;;;4.35;2.95;;;27.50;92.80;;;;;;5033572;28;20037;-72
2022/06/25 07:36:03;;;;;;;6.97;3.70;;;27.70;92.60;;;;;;5033044;28;20080;-71
2022/06/25 07:38:29;;;;;;;4.85;3.17;;;27.50;91.90;;;;;;5033523;28;20418;-71
2022/06/25 07:40:55;;;;;;;5.97;3.90;;;27.60;92.10;;;;;;5032286;28;20056;-71
2022/06/25 07:43:21;;;;;;;5.85;3.53;;;27.50;92.50;;;;;;5033436;28;20495;-71
2022/06/25 07:45:46;;;;;;;5.13;3.42;;;27.80;91.80;;;;;;5031634;28;20107;-71
2022/06/25 07:48:12;;;;;;;6.38;3.63;;;27.40;90.50;;;;;;5033247;28;20030;-71
2022/06/25 07:53:21;;;;;;;7.15;3.20;;;27.60;91.10;;;;;;5033397;28;20042;-71
2022/06/25 07:55:47;;;;;;;5.80;2.75;;;27.60;88.00;;;;;;5031494;28;20384;-71
2022/06/25 07:58:12;;;;;;;5.03;2.33;;;27.90;86.60;;;;;;5023834;28;20041;-71
2022/06/25 08:00:39;;;;;;;5.45;2.00;;;28.10;87.20;;;;;;5026130;28;20056;-71
2022/06/25 08:03:05;;;;;;;5.50;2.78;;;28.20;85.60;;;;;;5023879;28;20045;-71
2022/06/25 08:05:32;;;;;;;2.92;1.92;;;28.10;86.80;;;;;;5032602;28;20521;-71
2022/06/25 08:07:58;;;;;;;6.50;2.28;;;28.00;86.40;;;;;;5033092;28;20084;-71
2022/06/25 08:10:23;;;;;;;3.70;2.17;;;27.70;83.70;;;;;;5032732;28;20076;-71
2022/06/25 08:12:49;;;;;;;6.43;2.90;;;27.40;83.20;;;;;;5031603;28;20049;-71
2022/06/25 08:15:16;;;;;;;4.30;2.28;;;27.60;82.50;;;;;;5030790;28;20447;-71
2022/06/25 08:17:42;;;;;;;6.22;1.80;;;27.90;83.20;;;;;;5012891;28;20044;-71
2022/06/25 08:20:08;;;;;;;2.92;1.83;;;27.90;81.60;;;;;;5013029;28;20038;-71
2022/06/25 08:22:34;;;;;;;3.42;1.45;;;28.00;78.60;;;;;;5011672;28;20096;-71
2022/06/25 08:24:59;;;;;;;4.22;1.40;;;27.90;78.30;;;;;;5012529;28;20046;-71
2022/06/25 08:27:25;;;;;;;4.07;1.88;;;28.10;81.00;;;;;;5013003;28;20065;-71
2022/06/25 08:29:50;;;;;;;4.13;1.83;;;27.80;81.00;;;;;;5010800;28;20145;-71
2022/06/25 08:32:16;;;;;;;2.38;1.35;;;27.40;78.40;;;;;;5012688;28;20073;-71
2022/06/25 08:34:42;;;;;;;6.93;1.90;;;27.40;79.90;;;;;;5011355;28;20454;-71
2022/06/25 08:37:07;;;;;;;4.85;1.48;;;27.30;79.60;;;;;;5011114;28;20048;-71
2022/06/25 08:39:33;;;;;;;4.63;1.30;;;27.20;82.30;;;;;;5012617;28;20079;-73
2022/06/25 08:42:03;;;;;;;3.70;1.80;;;26.80;83.40;;;;;;5012550;28;20048;-72
2022/06/25 08:44:30;;;;;;;4.53;1.55;;;26.70;81.50;;;;;;5011216;28;20392;-72
2022/06/25 08:46:56;;;;;;;6.32;1.75;;;26.80;83.80;;;;;;5011065;28;20048;-72
2022/06/25 08:49:23;;;;;;;3.58;1.50;;;26.80;83.70;;;;;;5011255;28;20404;-72
2022/06/25 08:51:52;;;;;;;3.72;1.48;;;27.00;84.80;;;;;;5011534;28;20034;-71
2022/06/25 08:54:19;;;;;;;3.75;1.50;;;27.10;80.60;;;;;;5012524;28;20049;-72
2022/06/25 08:56:46;;;;;;;2.90;1.67;;;27.20;79.40;;;;;;5012196;28;20048;-72
2022/06/25 08:59:12;;;;;;;4.90;1.55;;;27.30;78.40;;;;;;5011242;28;20037;-71
2022/06/25 09:01:37;;;;;;;2.60;1.40;;;27.40;77.80;;;;;;5011021;28;20099;-72
2022/06/25 09:04:03;;;;;;;3.83;1.60;;;27.40;81.70;;;;;;5011082;28;20038;-71
2022/06/25 09:06:29;;;;;;;9.00;2.10;;;27.00;80.80;;;;;;5011871;28;20038;-71
2022/06/25 09:09:11;;;;;;;4.03;1.52;;;26.70;78.10;;;;;;5012146;28;20054;-72
2022/06/25 09:11:50;;;;;;;3.65;1.75;;;26.50;78.20;;;;;;5070568;23;20127;-80
2022/06/25 09:14:28;;;;;;;4.15;1.63;;;26.20;80.40;;;;;;5054175;28;20064;-80
2022/06/25 09:16:59;;;;;;;4.15;1.60;;;26.00;80.70;;;;;;5053803;28;20041;-80
2022/06/25 09:19:40;;;;;;;4.80;1.70;;;25.90;81.00;;;;;;5054185;28;20072;-79
2022/06/25 09:22:07;;;;;;;3.60;1.60;;;25.70;82.60;;;;;;5017602;28;20040;-79
2022/06/25 09:24:46;;;;;;;3.92;1.85;;;25.80;83.10;;;;;;5034277;28;20038;-80
2022/06/25 09:27:15;;;;;;;4.47;2.30;;;25.80;84.20;;;;;;5036847;28;20521;-80
2022/06/25 09:29:46;;;;;;;3.08;1.95;;;25.60;87.50;;;;;;5016945;28;20458;-80
2022/06/25 09:32:13;;;;;;;4.10;1.75;;;25.60;87.50;;;;;;5034739;28;20495;-80
2022/06/25 09:34:39;;;;;;;2.30;1.27;;;25.70;88.70;;;;;;5016697;28;20079;-80
2022/06/25 09:37:34;;;;;;;3.85;1.30;;;25.80;88.80;;;;;;5033554;28;20041;-80
2022/06/25 09:40:00;;;;;;;2.50;1.20;;;26.10;87.90;;;;;;5016902;28;20049;-80
2022/06/25 09:42:29;;;;;;;4.82;1.33;;;26.20;86.00;;;;;;5037877;28;20040;-80
2022/06/25 09:45:09;;;;;;;6.18;1.60;;;26.00;82.30;;;;;;5021210;28;20163;-79
2022/06/25 09:47:40;;;;;;;3.97;1.80;;;25.80;84.40;;;;;;5037272;28;20068;-80
2022/06/25 09:50:17;;;;;;;4.53;1.55;;;25.80;85.00;;;;;;5038598;28;20041;-81
2022/06/25 09:52:59;;;;;;;3.25;1.30;;;25.80;86.40;;;;;;5037568;28;20498;-80
2022/06/25 09:55:28;;;;;;;4.77;1.40;;;26.00;86.10;;;;;;5036827;28;20067;-79
2022/06/25 09:57:54;;;;;;;3.00;1.27;;;25.80;86.00;;;;;;5037674;28;20065;-81
2022/06/25 10:00:23;;;;;;;3.13;0.80;;;25.80;84.50;;;;;;5037329;28;20076;-81
2022/06/25 10:02:52;;;;;;;3.10;1.08;;;25.90;85.30;;;;;;5038124;28;20044;-80
2022/06/25 10:05:28;;;;;;;1.83;0.90;;;26.00;84.90;;;;;;5035842;28;20041;-80
2022/06/25 10:08:00;;;;;;;2.92;1.10;;;26.10;86.10;;;;;;5036509;28;20049;-81
2022/06/25 10:10:30;;;;;;;1.95;0.90;;;26.20;83.50;;;;;;5036411;28;20052;-80
2022/06/25 10:12:56;;;;;;;4.93;1.20;;;26.00;81.70;;;;;;5036404;28;20069;-80
2022/06/25 10:15:25;;;;;;;1.73;0.90;;;25.90;85.30;;;;;;5036438;28;20041;-81
2022/06/25 10:17:51;;;;;;;4.97;1.38;;;25.90;83.00;;;;;;5037942;28;20101;-82
2022/06/25 10:20:18;;;;;;;1.83;1.30;;;25.80;81.40;;;;;;5035650;28;20128;-80
2022/06/25 10:22:47;;;;;;;2.08;1.13;;;25.80;82.90;;;;;;5036257;28;20076;-80
2022/06/25 10:25:14;;;;;;;3.22;1.17;;;25.80;83.50;;;;;;5035665;28;20095;-81
2022/06/25 10:27:45;;;;;;;3.75;1.27;;;25.80;83.10;;;;;;5036132;28;20499;-80
2022/06/25 10:30:13;;;;;;;2.85;1.20;;;26.00;84.10;;;;;;5036437;28;20466;-81
2022/06/25 10:32:48;;;;;;;3.58;1.10;;;26.00;85.90;;;;;;5035645;28;20037;-80
2022/06/25 10:35:33;;;;;;;2.20;1.15;;;26.00;83.10;;;;;;5036704;28;20052;-81
2022/06/25 10:38:14;;;;;;;4.07;1.42;;;26.10;85.40;;;;;;5035861;28;20156;-80
2022/06/25 10:42:58;;;;;;;2.88;1.20;;;26.00;82.40;;;;;;5036711;28;20049;-80
2022/06/25 10:43:50;;;;;;;2.22;0.90;;;26.00;82.90;;;;;;5036895;28;20050;-80
2022/06/25 10:46:26;;;;;;;2.05;1.45;;;26.00;85.50;;;;;;5018681;28;20506;-82
2022/06/25 10:48:57;;;;;;;2.35;1.17;;;26.20;88.00;;;;;;5036206;28;20120;-81
2022/06/25 10:51:44;;;;;;;4.30;1.15;;;26.10;81.00;;;;;;5035406;28;20042;-81
2022/06/25 10:54:25;;;;;;;3.75;1.00;;;26.40;80.40;;;;;;5035114;28;20041;-79
2022/06/25 10:56:58;;;;;;;2.65;0.95;;;26.50;80.70;;;;;;5036532;28;20398;-79
2022/06/25 10:59:33;;;;;;;2.22;1.00;;;26.50;76.60;;;;;;5036800;28;20037;-80
2022/06/25 11:02:00;;;;;;;2.42;1.00;;;26.60;79.20;;;;;;5036195;28;20516;-79
2022/06/25 11:04:27;;;;;;;3.92;1.10;;;26.50;77.60;;;;;;5019150;28;20051;-80
2022/06/25 11:07:06;;;;;;;2.70;1.00;;;26.40;75.70;;;;;;5034989;28;20558;-80
2022/06/25 11:09:31;;;;;;;2.22;0.85;;;26.40;78.40;;;;;;5036463;28;20029;-80
2022/06/25 11:11:58;;;;;;;3.78;1.52;;;26.20;79.00;;;;;;5035974;28;20557;-80
2022/06/25 11:14:24;;;;;;;2.97;1.17;;;26.20;80.40;;;;;;5034406;28;20050;-80
2022/06/25 11:16:51;;;;;;;1.67;1.38;;;26.20;80.90;;;;;;5035027;28;20068;-80
2022/06/25 11:19:19;;;;;;;4.78;1.63;;;26.20;81.40;;;;;;5035395;28;20110;-81
2022/06/25 11:21:46;;;;;;;3.15;1.40;;;26.30;80.90;;;;;;5035531;28;20030;-81
2022/06/25 11:24:12;;;;;;;2.42;1.20;;;26.30;79.10;;;;;;5034556;28;20048;-80
2022/06/25 11:29:28;;;;;;;4.78;1.20;;;26.50;78.70;;;;;;5034082;28;20038;-80
2022/06/25 11:31:55;;;;;;;3.00;1.45;;;26.70;77.30;;;;;;5034384;28;20138;-80
2022/06/25 11:34:23;;;;;;;4.30;0.98;;;26.90;77.70;;;;;;5017767;28;20038;-80
2022/06/25 11:37:06;;;;;;;4.55;1.40;;;27.00;77.40;;;;;;5034292;28;20038;-80
2022/06/25 11:39:32;;;;;;;;;;;26.80;77.80;;;;;;5035594;28;20038;-80
2022/06/25 11:41:59;;;;;;;3.53;1.75;;;26.70;78.20;;;;;;5034469;28;19927;-80
2022/06/25 11:44:25;;;;;;;1.77;0.90;;;26.70;75.90;;;;;;5017283;28;20037;-80
2022/06/25 11:46:53;;;;;;;2.47;0.80;;;26.70;77.90;;;;;;5034033;28;20045;-80
2022/06/25 11:49:22;;;;;;;4.50;0.80;;;26.70;75.60;;;;;;5017768;28;20044;-80
2022/06/25 11:51:49;;;;;;;2.25;0.90;;;26.70;75.00;;;;;;5034943;28;20073;-80
2022/06/25 11:54:19;;;;;;;1.83;0.90;;;26.80;74.40;;;;;;5034063;28;20037;-81
2022/06/25 11:56:55;;;;;;;2.25;0.90;;;27.00;75.30;;;;;;5033522;28;20492;-80
2022/06/25 11:59:33;;;;;;;2.55;1.08;;;26.90;77.40;;;;;;5034044;28;20037;-80
2022/06/25 12:01:59;;;;;;;2.90;1.27;;;26.70;78.80;;;;;;5034092;28;20041;-81
2022/06/25 12:04:26;;;;;;;2.70;1.00;;;26.20;79.80;;;;;;5033357;28;20049;-81
2022/06/25 12:06:52;;;;;;;3.00;1.00;;;26.20;80.90;;;;;;5034828;28;20045;-81
2022/06/25 12:09:19;;;;;;;1.77;0.80;;;26.10;81.90;;;;;;5033774;28;20045;-80
2022/06/25 12:11:52;;;;;;;2.90;0.80;;;26.20;81.50;;;;;;5016967;28;20037;-80
2022/06/25 12:14:25;;;;;;;3.15;1.05;;;26.20;80.30;;;;;;5035033;28;20033;-80
2022/06/25 12:16:52;;;;;;;2.30;1.20;;;26.00;81.90;;;;;;5033343;28;20125;-80
2022/06/25 12:19:18;;;;;;;2.33;0.77;;;25.90;80.50;;;;;;5033211;28;20033;-80
2022/06/25 12:21:44;;;;;;;2.35;1.00;;;25.90;82.70;;;;;;5016938;28;20041;-80
2022/06/25 12:24:15;;;;;;;2.15;1.42;;;25.80;81.50;;;;;;5016661;28;20041;-80
2022/06/25 12:26:49;;;;;;;4.22;1.17;;;25.60;84.70;;;;;;5034501;28;20037;-80
2022/06/25 12:29:18;;;;;;;2.83;1.20;;;25.40;85.30;;;;;;5034575;28;20057;-80
2022/06/25 12:32:00;;;;;;;4.88;1.20;;;25.10;86.30;;;;;;5032850;28;20124;-80
2022/06/25 12:34:27;;;;;;;2.53;1.27;;;24.90;87.40;;;;;;5033072;28;20454;-80
2022/06/25 12:36:55;;;;;;;3.97;1.17;;;24.80;88.00;;;;;;5034604;28;20030;-81
2022/06/25 12:39:27;;;;;;;2.28;1.00;;;24.70;89.50;;;;;;5017371;28;20041;-81
2022/06/25 12:41:53;;;;;;;4.18;1.40;;;24.60;91.00;;;;;;5034439;28;20410;-80
2022/06/25 12:44:19;;;;;;;5.57;1.38;;;24.40;91.10;;;;;;5034140;28;20069;-82
2022/06/25 12:47:05;;;;;;;4.40;1.42;;;24.30;90.90;;;;;;5033043;28;20069;-81
2022/06/25 12:49:59;;;;;;;2.70;1.02;;;24.10;90.60;;;;;;5034180;28;20041;-81
2022/06/25 12:52:36;;;;;;;3.42;1.40;;;23.90;91.10;;;;;;5033115;28;20126;-81
2022/06/25 12:55:02;;;;;;;5.18;1.20;;;23.70;91.40;;;;;;5032352;28;20533;-81
2022/06/25 12:57:36;;;;;;;4.13;1.60;;;23.60;93.20;;;;;;5032643;28;20041;-81